Time;durP1;ratioP1;P1;durP2;ratioP2;P2;SDS_P1;SDS_P2;PMS_P1;PMS_P2;Temp;Humidity;BMP_temperature;BMP_pressure;BME280_temperature;BME280_humidity;BME280_pressure;Samples;Min_cycle;Max_cycle;Signal;HPM_P1;HPM_P2
2022/12/30 00:01:37;;;;;;;2.53;2.33;;;;;;;14.27;100.00;96175.34;5058893;28;20658;-39
2022/12/30 00:04:05;;;;;;;2.80;2.60;;;;;;;14.30;100.00;96184.78;5061388;28;20083;-38
2022/12/30 00:06:34;;;;;;;3.03;2.50;;;;;;;14.27;100.00;96179.84;5057037;28;20537;-40
2022/12/30 00:09:02;;;;;;;2.88;2.30;;;;;;;14.35;100.00;96179.78;5065757;28;20087;-37
2022/12/30 00:11:32;;;;;;;2.60;2.40;;;;;;;14.43;100.00;96191.19;5057259;28;20084;-37
2022/12/30 00:33:45;;;;;;;2.63;2.20;;;;;;;13.38;100.00;96248.88;5055893;28;20095;-43
2022/12/30 00:36:14;;;;;;;2.35;2.25;;;;;;;12.90;100.00;96250.47;5048783;28;20076;-38
2022/12/30 00:38:42;;;;;;;2.40;2.30;;;;;;;12.74;100.00;96261.91;5054192;28;20080;-37
2022/12/30 00:43:58;;;;;;;2.20;2.10;;;;;;;12.47;100.00;96278.84;5041701;28;20083;-45
2022/12/30 00:46:27;;;;;;;2.10;2.00;;;;;;;12.37;100.00;96280.81;5054159;28;20072;-43
2022/12/30 00:57:15;;;;;;;2.30;2.20;;;;;;;12.25;100.00;96296.16;5053666;28;20110;-38
2022/12/30 00:59:43;;;;;;;2.42;2.33;;;;;;;12.02;100.00;96300.31;5051980;28;20080;-39
2022/12/30 01:02:12;;;;;;;2.50;2.30;;;;;;;12.28;100.00;96295.81;5061736;28;20084;-38
2022/12/30 01:04:42;;;;;;;2.22;2.13;;;;;;;11.85;100.00;96308.16;5054617;28;20088;-38
2022/12/30 01:07:10;;;;;;;2.70;2.60;;;;;;;11.82;100.00;96313.72;5065803;28;20076;-41
2022/12/30 01:09:38;;;;;;;2.20;2.10;;;;;;;11.85;100.00;96312.63;5066835;28;20072;-36
2022/12/30 01:12:10;;;;;;;2.40;2.20;;;;;;;11.74;100.00;96323.41;5050757;28;20092;-43
2022/12/30 01:14:40;;;;;;;2.20;2.10;;;;;;;11.99;100.00;96330.53;5055951;28;20084;-46
2022/12/30 01:17:09;;;;;;;4.75;2.47;;;;;;;11.83;100.00;96340.97;5056662;28;20078;-41
2022/12/30 01:19:38;;;;;;;2.30;2.10;;;;;;;11.77;100.00;96341.59;5058742;28;20114;-36
2022/12/30 01:22:09;;;;;;;2.40;2.20;;;;;;;11.84;100.00;96353.25;5062838;28;20084;-44
2022/12/30 01:24:37;;;;;;;2.50;2.30;;;;;;;11.83;100.00;96360.28;5059722;28;20079;-39
2022/12/30 01:27:06;;;;;;;2.42;2.30;;;;;;;11.74;100.00;96368.31;5057202;28;20080;-39
2022/12/30 01:29:36;;;;;;;2.30;2.20;;;;;;;11.84;100.00;96369.91;5058339;28;20488;-44
2022/12/30 01:32:06;;;;;;;2.30;2.20;;;;;;;11.53;100.00;96379.22;5059300;28;20091;-43
2022/12/30 01:34:35;;;;;;;2.33;2.22;;;;;;;11.73;100.00;96375.41;5058508;28;20053;-42
2022/12/30 01:37:04;;;;;;;2.30;2.20;;;;;;;11.79;100.00;96369.50;5056767;28;20099;-37
2022/12/30 01:39:34;;;;;;;2.20;2.10;;;;;;;11.66;100.00;96371.72;5057180;28;20087;-40
2022/12/30 01:42:02;;;;;;;2.35;2.25;;;;;;;11.64;100.00;96371.88;5053763;28;20521;-37
2022/12/30 01:44:56;;;;;;;2.35;2.25;;;;;;;11.61;100.00;96372.19;5054184;28;20088;-39
2022/12/30 01:47:31;;;;;;;2.40;2.30;;;;;;;11.33;100.00;96373.28;5055085;28;20102;-37
2022/12/30 01:50:04;;;;;;;2.30;2.20;;;;;;;11.34;100.00;96390.75;5065457;28;20080;-36
2022/12/30 01:52:34;;;;;;;2.40;2.30;;;;;;;11.45;100.00;96385.25;5054934;28;20541;-38
2022/12/30 01:55:07;;;;;;;2.65;2.45;;;;;;;11.45;100.00;96397.63;5056070;28;20525;-40
2022/12/30 01:57:36;;;;;;;2.20;2.10;;;;;;;11.37;100.00;96393.94;5057240;28;20138;-36
2022/12/30 02:00:07;;;;;;;2.30;2.20;;;;;;;11.73;100.00;96390.41;5054196;28;20068;-45
2022/12/30 02:02:36;;;;;;;2.33;2.22;;;;;;;11.47;100.00;96383.28;5049886;28;20095;-43
2022/12/30 02:05:05;;;;;;;3.25;2.40;;;;;;;11.78;100.00;96389.00;5054618;28;20080;-38
2022/12/30 02:07:36;;;;;;;2.40;2.20;;;;;;;11.62;100.00;96394.97;5060920;28;20107;-40
2022/12/30 02:10:06;;;;;;;;;;;;;;;11.84;100.00;96395.50;5053270;28;20083;-42
2022/12/30 02:12:34;;;;;;;2.25;2.15;;;;;;;12.02;100.00;96382.25;5065781;28;20006;-43
2022/12/30 02:15:04;;;;;;;2.20;2.10;;;;;;;11.40;100.00;96395.44;5050581;28;20072;-46
2022/12/30 02:17:39;;;;;;;2.47;2.28;;;;;;;12.04;100.00;96394.34;5059896;28;20118;-40
2022/12/30 02:20:35;;;;;;;2.40;2.20;;;;;;;12.05;100.00;96382.78;5059150;28;20068;-39
2022/12/30 02:23:43;;;;;;;2.20;2.10;;;;;;;11.89;100.00;96380.00;5045243;28;20064;-39
2022/12/30 02:26:36;;;;;;;2.25;2.15;;;;;;;11.75;100.00;96389.28;5043818;28;20637;-38
2022/12/30 02:29:27;;;;;;;2.38;2.28;;;;;;;12.02;100.00;96380.44;5055716;28;20515;-37
2022/12/30 02:31:56;;;;;;;;;;;;;;;12.19;100.00;96376.09;5025866;28;20926;-41
2022/12/30 02:34:32;;;;;;;2.60;2.40;;;;;;;12.20;100.00;96380.38;5054023;28;19974;-40
2022/12/30 02:37:06;;;;;;;2.42;2.22;;;;;;;12.12;100.00;96380.34;5053533;28;20076;-37
2022/12/30 02:39:36;;;;;;;2.28;2.17;;;;;;;12.52;100.00;96377.06;5051853;28;20071;-39
2022/12/30 02:44:57;;;;;;;2.22;2.13;;;;;;;12.57;100.00;96385.34;5053544;28;20081;-43
2022/12/30 02:47:31;;;;;;;2.55;2.40;;;;;;;12.82;100.00;96374.88;5057780;28;20079;-40
2022/12/30 02:52:49;;;;;;;2.63;2.30;;;;;;;12.49;100.00;96373.91;5055135;28;20091;-41
2022/12/30 02:55:18;;;;;;;2.28;2.17;;;;;;;12.48;100.00;96378.38;5061922;28;20474;-42
2022/12/30 02:57:46;;;;;;;2.40;2.30;;;;;;;12.28;100.00;96382.22;5055880;28;20072;-43
2022/12/30 03:06:37;;;;;;;2.30;2.20;;;;;;;11.73;100.00;96387.78;5051663;28;20524;-38
2022/12/30 03:09:13;;;;;;;2.28;2.17;;;;;;;12.41;100.00;96382.63;5065235;28;20080;-41
2022/12/30 03:11:48;;;;;;;2.35;2.20;;;;;;;12.29;100.00;96394.47;5055289;28;20483;-40
2022/12/30 03:14:23;;;;;;;2.42;2.33;;;;;;;12.16;100.00;96384.31;5051464;28;20084;-39
2022/12/30 03:16:53;;;;;;;2.38;2.28;;;;;;;11.78;100.00;96388.16;5047567;28;20092;-44
2022/12/30 03:19:25;;;;;;;2.65;2.30;;;;;;;11.83;100.00;96389.34;5060006;28;20076;-38
2022/12/30 03:21:54;;;;;;;2.40;2.30;;;;;;;12.25;100.00;96391.31;5053566;28;20084;-37
2022/12/30 03:27:12;;;;;;;2.35;2.25;;;;;;;11.99;100.00;96386.03;5055448;28;20080;-42
2022/12/30 03:29:43;;;;;;;3.47;2.37;;;;;;;12.06;100.00;96399.47;5050462;28;20091;-36
2022/12/30 03:32:15;;;;;;;2.30;2.20;;;;;;;11.99;100.00;96390.50;5052734;28;20115;-43
2022/12/30 03:34:45;;;;;;;2.40;2.20;;;;;;;11.69;100.00;96386.44;5051964;28;20088;-39
2022/12/30 03:37:18;;;;;;;2.20;2.10;;;;;;;11.50;100.00;96395.38;5044082;28;20072;-40
2022/12/30 03:39:50;;;;;;;3.78;2.20;;;;;;;11.76;100.00;96398.88;5050466;28;20088;-40
2022/12/30 03:42:18;;;;;;;2.20;2.10;;;;;;;11.62;100.00;96402.06;5050897;28;20701;-39
2022/12/30 03:44:48;;;;;;;2.20;2.10;;;;;;;11.77;100.00;96416.41;5051868;28;20142;-38
2022/12/30 03:47:18;;;;;;;2.20;2.10;;;;;;;11.25;100.00;96412.78;5056812;28;20084;-38
2022/12/30 03:49:48;;;;;;;2.20;2.10;;;;;;;11.88;100.00;96421.47;5052966;28;20481;-39
2022/12/30 03:52:18;;;;;;;2.23;2.10;;;;;;;11.90;100.00;96418.66;5052257;28;20086;-40
2022/12/30 03:54:47;;;;;;;2.40;2.30;;;;;;;11.55;100.00;96417.69;5053138;28;20475;-37
2022/12/30 03:57:16;;;;;;;2.20;2.10;;;;;;;11.85;100.00;96418.31;5055737;28;20084;-39
2022/12/30 03:59:44;;;;;;;2.30;2.20;;;;;;;11.49;100.00;96431.50;5051978;28;20088;-36
2022/12/30 04:02:13;;;;;;;2.20;2.10;;;;;;;11.56;100.00;96419.38;5047958;28;20478;-39
2022/12/30 04:04:41;;;;;;;2.30;2.20;;;;;;;11.37;100.00;96425.63;5051152;28;20110;-39
2022/12/30 04:07:11;;;;;;;2.50;2.30;;;;;;;11.47;100.00;96420.25;5056452;28;20080;-42
2022/12/30 04:09:39;;;;;;;2.20;2.10;;;;;;;11.66;100.00;96419.25;5059620;28;20088;-37
2022/12/30 04:12:08;;;;;;;2.20;2.10;;;;;;;11.48;100.00;96429.00;5051353;28;20549;-40
2022/12/30 04:14:36;;;;;;;2.20;2.10;;;;;;;11.59;100.00;96423.50;5049119;28;20052;-38
2022/12/30 04:17:04;;;;;;;3.38;2.28;;;;;;;11.49;100.00;96420.94;5052954;28;20562;-39
2022/12/30 04:19:33;;;;;;;2.30;2.20;;;;;;;11.89;100.00;96414.38;5054238;28;20087;-37
2022/12/30 04:22:01;;;;;;;2.30;2.10;;;;;;;11.43;100.00;96424.19;5052001;28;20080;-39
2022/12/30 04:24:31;;;;;;;2.40;2.30;;;;;;;11.58;100.00;96421.84;5058983;28;20084;-37
2022/12/30 04:26:59;;;;;;;2.30;2.10;;;;;;;11.33;100.00;96423.44;5052625;28;20072;-40
2022/12/30 04:29:27;;;;;;;2.20;2.10;;;;;;;11.46;100.00;96417.75;5061161;28;20084;-37
2022/12/30 04:31:56;;;;;;;2.83;2.20;;;;;;;11.48;100.00;96414.00;5050315;28;20103;-40
2022/12/30 04:34:24;;;;;;;2.40;2.20;;;;;;;11.60;100.00;96415.44;5058348;28;20076;-37
2022/12/30 04:36:52;;;;;;;2.15;2.05;;;;;;;11.52;100.00;96410.06;5050989;28;20073;-41
2022/12/30 04:39:21;;;;;;;2.20;2.10;;;;;;;11.57;100.00;96405.16;5054884;28;20494;-46
2022/12/30 04:41:50;;;;;;;2.25;2.15;;;;;;;11.35;100.00;96408.25;5052688;28;20096;-38
2022/12/30 04:44:19;;;;;;;2.20;2.10;;;;;;;11.40;100.00;96400.72;5055210;28;20081;-37
2022/12/30 04:46:47;;;;;;;2.30;2.20;;;;;;;11.69;100.00;96399.63;5053959;28;20044;-41
2022/12/30 04:49:16;;;;;;;2.40;2.08;;;;;;;12.03;100.00;96395.31;5060406;28;20077;-40
2022/12/30 04:51:44;;;;;;;2.53;2.20;;;;;;;11.71;100.00;96392.41;5058158;28;20159;-38
2022/12/30 04:54:12;;;;;;;2.33;2.15;;;;;;;12.13;100.00;96387.28;5063754;28;20073;-39
2022/12/30 04:56:41;;;;;;;2.10;2.00;;;;;;;11.94;100.00;96388.31;5058565;28;20588;-40
2022/12/30 04:59:11;;;;;;;2.35;1.98;;;;;;;11.74;100.00;96400.84;5049988;28;20045;-39
2022/12/30 05:01:39;;;;;;;2.40;2.20;;;;;;;11.82;100.00;96411.47;5052299;28;20076;-45
2022/12/30 05:04:13;;;;;;;2.42;2.10;;;;;;;12.09;100.00;96412.38;5055762;28;20092;-37
2022/12/30 05:06:41;;;;;;;2.78;2.53;;;;;;;12.41;100.00;96408.25;5058834;28;20084;-39
2022/12/30 05:09:10;;;;;;;2.55;2.17;;;;;;;11.77;100.00;96415.56;5052348;28;20084;-37
2022/12/30 05:11:38;;;;;;;2.20;2.10;;;;;;;12.20;100.00;96419.19;5052323;28;20568;-40
2022/12/30 05:14:06;;;;;;;2.28;2.00;;;;;;;11.63;100.00;96436.25;5051815;28;20095;-49
2022/12/30 05:16:36;;;;;;;2.30;2.10;;;;;;;12.17;100.00;96430.09;5058698;28;20088;-42
2022/12/30 05:19:05;;;;;;;2.85;2.20;;;;;;;12.05;100.00;96422.41;5061051;28;20092;-44
2022/12/30 05:21:33;;;;;;;2.30;2.10;;;;;;;12.07;100.00;96422.25;5059992;28;20532;-39
2022/12/30 05:26:47;;;;;;;2.60;2.40;;;;;;;12.50;100.00;96428.47;5056623;28;20098;-42
2022/12/30 05:29:15;;;;;;;2.50;2.30;;;;;;;12.34;100.00;96445.06;5060569;28;20099;-42
2022/12/30 05:31:45;;;;;;;2.38;2.17;;;;;;;11.90;100.00;96444.25;5059543;28;20084;-41
2022/12/30 05:34:13;;;;;;;2.47;2.30;;;;;;;12.21;100.00;96436.72;5063607;28;20084;-46
2022/12/30 05:36:42;;;;;;;2.55;2.35;;;;;;;12.18;100.00;96432.59;5056542;28;20499;-51
2022/12/30 05:39:11;;;;;;;2.22;2.10;;;;;;;12.34;100.00;96431.84;5063072;28;20087;-48
2022/12/30 05:41:40;;;;;;;2.33;2.22;;;;;;;12.35;100.00;96431.72;5053526;28;20080;-48
2022/12/30 05:44:08;;;;;;;2.22;2.13;;;;;;;12.39;100.00;96429.56;5057963;28;20081;-47
2022/12/30 05:46:37;;;;;;;2.40;2.20;;;;;;;12.57;100.00;96432.16;5054695;28;20084;-49
2022/12/30 05:49:06;;;;;;;2.35;2.20;;;;;;;12.19;100.00;96434.25;5060977;28;20529;-46
2022/12/30 05:51:35;;;;;;;2.50;2.30;;;;;;;12.42;100.00;96437.19;5066956;28;20474;-46
2022/12/30 05:54:03;;;;;;;2.30;2.20;;;;;;;12.40;100.00;96431.22;5051840;28;20520;-49
2022/12/30 05:56:31;;;;;;;2.30;2.20;;;;;;;12.26;100.00;96434.44;5056674;28;20084;-46
2022/12/30 05:59:00;;;;;;;2.50;2.20;;;;;;;12.52;100.00;96432.59;5053229;28;20103;-46
2022/12/30 06:01:28;;;;;;;2.42;2.22;;;;;;;12.77;100.00;96435.41;5060527;28;20080;-47
2022/12/30 06:03:57;;;;;;;2.70;2.50;;;;;;;12.64;100.00;96437.66;5055118;28;20089;-48
2022/12/30 06:06:27;;;;;;;4.13;3.30;;;;;;;12.71;100.00;96426.25;5057747;28;20112;-47
2022/12/30 06:08:55;;;;;;;3.20;2.78;;;;;;;12.63;100.00;96423.59;5054834;28;20083;-50
2022/12/30 06:11:23;;;;;;;2.50;2.30;;;;;;;12.59;100.00;96409.84;5062898;28;20091;-48
2022/12/30 06:13:51;;;;;;;2.97;2.78;;;;;;;12.67;100.00;96413.53;5056260;28;20555;-49
2022/12/30 06:16:19;;;;;;;3.78;3.22;;;;;;;12.21;100.00;96415.56;5063481;28;20095;-45
2022/12/30 06:18:48;;;;;;;3.35;2.80;;;;;;;12.34;100.00;96421.28;5056701;28;20088;-47
2022/12/30 06:21:16;;;;;;;4.90;3.28;;;;;;;12.22;100.00;96419.88;5051773;28;20081;-46
2022/12/30 06:23:46;;;;;;;7.75;4.82;;;;;;;12.17;100.00;96427.44;5055276;28;20539;-48
2022/12/30 06:26:14;;;;;;;3.60;3.28;;;;;;;12.41;100.00;96432.06;5050182;28;20088;-47
2022/12/30 06:28:42;;;;;;;3.00;2.70;;;;;;;12.36;100.00;96440.47;5061726;28;20111;-49
2022/12/30 06:31:11;;;;;;;3.42;2.60;;;;;;;12.39;100.00;96441.94;5061690;28;20091;-47
2022/12/30 06:33:39;;;;;;;2.90;2.70;;;;;;;12.08;100.00;96445.91;5066784;28;20080;-46
2022/12/30 06:36:09;;;;;;;3.10;2.90;;;;;;;12.02;100.00;96448.31;5058246;28;20133;-46
2022/12/30 06:38:37;;;;;;;3.05;2.85;;;;;;;12.11;100.00;96450.88;5056529;28;20084;-48
2022/12/30 06:41:08;;;;;;;3.20;3.00;;;;;;;12.40;100.00;96457.69;5049733;28;20095;-45
2022/12/30 06:43:36;;;;;;;3.22;3.03;;;;;;;12.54;100.00;96443.03;5056441;28;20080;-48
2022/12/30 06:46:04;;;;;;;3.10;2.90;;;;;;;12.66;100.00;96439.13;5063330;28;20084;-47
2022/12/30 06:48:33;;;;;;;3.47;3.25;;;;;;;12.73;100.00;96436.66;5061794;28;20540;-49
2022/12/30 06:51:04;;;;;;;3.50;3.10;;;;;;;12.77;100.00;96436.22;5057235;28;20084;-48
2022/12/30 06:53:32;;;;;;;3.58;2.50;;;;;;;12.86;100.00;96436.25;5050471;28;20124;-46
2022/12/30 06:56:00;;;;;;;2.58;2.40;;;;;;;12.80;100.00;96448.28;5066317;28;20095;-46
2022/12/30 06:58:30;;;;;;;2.40;2.20;;;;;;;12.45;100.00;96447.44;5057344;28;20092;-46
2022/12/30 07:00:58;;;;;;;2.70;2.50;;;;;;;12.76;100.00;96441.66;5054750;28;20458;-46
2022/12/30 07:03:27;;;;;;;2.63;2.42;;;;;;;12.86;100.00;96433.59;5056115;28;20080;-46
2022/12/30 07:05:55;;;;;;;2.40;2.20;;;;;;;12.79;100.00;96426.28;5061962;28;20090;-46
2022/12/30 07:08:23;;;;;;;3.47;3.20;;;;;;;12.74;100.00;96423.31;5051809;28;20081;-49
2022/12/30 07:10:52;;;;;;;4.47;4.07;;;;;;;12.69;100.00;96416.81;5055393;28;20111;-49
2022/12/30 07:13:20;;;;;;;3.00;2.80;;;;;;;12.62;100.00;96421.91;5059912;28;20083;-47
2022/12/30 07:15:50;;;;;;;2.58;2.40;;;;;;;11.94;100.00;96432.38;5061863;28;20080;-48
2022/12/30 07:18:18;;;;;;;2.83;2.63;;;;;;;11.73;100.00;96438.81;5054455;28;20668;-48
2022/12/30 07:20:46;;;;;;;2.30;2.20;;;;;;;11.28;100.00;96439.69;5056373;28;20134;-48
2022/12/30 07:23:14;;;;;;;2.50;2.30;;;;;;;11.07;100.00;96429.41;5061972;28;20068;-48
2022/12/30 07:25:46;;;;;;;2.55;2.40;;;;;;;11.26;100.00;96430.28;5051161;28;20085;-48
2022/12/30 07:28:14;;;;;;;2.50;2.30;;;;;;;11.71;100.00;96430.22;5061870;28;20084;-50
2022/12/30 07:30:42;;;;;;;2.50;2.30;;;;;;;11.38;100.00;96437.00;5057742;28;20076;-51
2022/12/30 07:33:12;;;;;;;2.60;2.40;;;;;;;11.39;100.00;96433.41;5053909;28;20470;-50
2022/12/30 07:35:40;;;;;;;4.07;3.67;;;;;;;11.60;100.00;96430.44;5057396;28;20096;-47
2022/12/30 07:38:09;;;;;;;2.80;2.60;;;;;;;11.37;100.00;96433.53;5063280;28;20463;-47
2022/12/30 07:40:37;;;;;;;2.60;2.40;;;;;;;11.25;100.00;96440.03;5055234;28;20087;-52
2022/12/30 07:43:05;;;;;;;2.83;2.60;;;;;;;10.77;100.00;96446.41;5048662;28;20085;-49
2022/12/30 07:45:34;;;;;;;2.90;2.60;;;;;;;11.02;100.00;96446.69;5055504;28;20083;-49
2022/12/30 07:48:02;;;;;;;3.00;2.70;;;;;;;10.72;100.00;96455.72;5058255;28;20073;-53
2022/12/30 07:50:32;;;;;;;2.90;2.67;;;;;;;10.83;100.00;96447.59;5052575;28;20095;-46
2022/12/30 07:53:01;;;;;;;4.03;3.38;;;;;;;10.84;100.00;96459.81;5048361;28;20210;-47
2022/12/30 07:55:29;;;;;;;3.03;2.80;;;;;;;11.11;100.00;96456.34;5049088;28;20279;-47
2022/12/30 07:57:58;;;;;;;5.32;3.00;;;;;;;10.74;100.00;96451.16;5054439;28;20076;-52
2022/12/30 08:00:26;;;;;;;2.95;2.70;;;;;;;11.17;100.00;96450.47;5060210;28;20130;-48
2022/12/30 08:02:55;;;;;;;3.10;2.90;;;;;;;11.31;100.00;96449.97;5054774;28;20068;-46
2022/12/30 08:05:23;;;;;;;4.00;3.70;;;;;;;11.63;100.00;96441.53;5054654;28;20076;-46
2022/12/30 08:07:54;;;;;;;3.20;2.97;;;;;;;11.52;100.00;96448.84;5055179;28;20084;-48
2022/12/30 08:10:22;;;;;;;4.10;3.45;;;;;;;11.72;100.00;96447.72;5063096;28;20091;-49
2022/12/30 08:12:50;;;;;;;4.72;4.32;;;;;;;11.75;100.00;96451.88;5059886;28;20531;-50
2022/12/30 08:15:18;;;;;;;3.90;3.60;;;;;;;12.02;100.00;96458.91;5057683;28;20123;-50
2022/12/30 08:17:47;;;;;;;3.10;2.80;;;;;;;12.02;100.00;96465.00;5060679;28;20100;-48
2022/12/30 08:20:16;;;;;;;3.05;2.85;;;;;;;11.92;100.00;96466.91;5061577;28;20568;-48
2022/12/30 08:22:44;;;;;;;2.88;2.67;;;;;;;11.97;100.00;96469.91;5061212;28;20083;-48
2022/12/30 08:25:14;;;;;;;3.00;2.80;;;;;;;12.17;100.00;96462.63;5055779;28;20073;-50
2022/12/30 08:27:42;;;;;;;4.40;2.43;;;;;;;12.23;100.00;96463.84;5062670;28;20106;-48
2022/12/30 08:30:12;;;;;;;3.05;2.85;;;;;;;12.17;100.00;96467.09;5059995;28;20076;-49
2022/12/30 08:32:41;;;;;;;4.45;3.40;;;;;;;12.18;100.00;96460.81;5068721;28;20509;-50
2022/12/30 08:35:09;;;;;;;3.53;2.80;;;;;;;12.32;100.00;96468.22;5056679;28;20457;-48
2022/12/30 08:37:37;;;;;;;2.70;2.50;;;;;;;11.98;100.00;96479.53;5059520;28;20088;-51
2022/12/30 08:40:07;;;;;;;2.53;2.38;;;;;;;12.42;100.00;96473.38;5056374;28;20120;-50
2022/12/30 08:42:37;;;;;;;3.13;2.83;;;;;;;12.37;100.00;96467.72;5056177;28;20076;-50
2022/12/30 08:45:07;;;;;;;2.60;2.40;;;;;;;12.40;100.00;96470.06;5055843;28;20081;-48
2022/12/30 08:47:36;;;;;;;2.70;2.50;;;;;;;12.07;100.00;96470.66;5055165;28;20701;-48
2022/12/30 08:50:05;;;;;;;2.63;2.42;;;;;;;12.08;100.00;96471.50;5062416;28;20083;-50
2022/12/30 08:52:33;;;;;;;2.67;2.55;;;;;;;12.54;100.00;96472.13;5058164;28;20084;-49
2022/12/30 08:55:02;;;;;;;3.72;2.95;;;;;;;12.43;100.00;96470.59;5065967;28;20091;-48
2022/12/30 08:57:30;;;;;;;2.70;2.50;;;;;;;12.93;100.00;96471.66;5059231;28;20076;-49
2022/12/30 09:00:00;;;;;;;3.20;2.90;;;;;;;13.01;100.00;96467.25;5062007;28;20091;-50
2022/12/30 09:02:28;;;;;;;5.20;3.75;;;;;;;13.24;100.00;96464.84;5055829;28;20095;-48
2022/12/30 09:04:57;;;;;;;3.50;2.80;;;;;;;12.98;100.00;96472.03;5060030;28;20557;-49
2022/12/30 09:07:25;;;;;;;3.53;2.80;;;;;;;13.28;100.00;96468.88;5054353;28;20076;-49
2022/12/30 09:10:13;;;;;;;3.22;2.83;;;;;;;13.16;100.00;96472.75;5054241;28;20512;-47
2022/12/30 09:12:42;;;;;;;2.90;2.70;;;;;;;13.37;100.00;96461.75;5056220;28;20084;-48
2022/12/30 09:15:13;;;;;;;3.45;2.50;;;;;;;13.34;100.00;96466.56;5063521;28;20080;-50
2022/12/30 09:17:41;;;;;;;2.72;2.53;;;;;;;13.43;100.00;96463.75;5066961;28;20679;-48
2022/12/30 09:20:10;;;;;;;2.42;2.30;;;;;;;13.43;100.00;96466.41;5056223;28;20084;-50
2022/12/30 09:22:38;;;;;;;2.50;2.30;;;;;;;13.42;100.00;96469.22;5061901;28;20060;-49
2022/12/30 09:25:08;;;;;;;2.40;2.20;;;;;;;13.71;100.00;96466.13;5059895;28;20079;-48
2022/12/30 09:27:36;;;;;;;2.40;2.20;;;;;;;13.21;100.00;96467.81;5064364;28;20085;-49
2022/12/30 09:30:05;;;;;;;2.50;2.30;;;;;;;13.76;100.00;96461.16;5059268;28;20083;-49
2022/12/30 09:32:34;;;;;;;2.50;2.30;;;;;;;13.46;100.00;96462.63;5065474;28;20521;-48
2022/12/30 09:35:03;;;;;;;2.30;2.20;;;;;;;13.76;100.00;96453.19;5057290;28;20085;-48
2022/12/30 09:37:32;;;;;;;2.65;2.45;;;;;;;14.12;100.00;96442.28;5053240;28;20094;-48
2022/12/30 09:40:00;;;;;;;2.30;2.20;;;;;;;14.17;100.00;96445.25;5064704;28;20476;-51
2022/12/30 09:45:24;;;;;;;2.30;2.20;;;;;;;14.27;100.00;96435.28;5063136;28;20195;-47
2022/12/30 09:47:58;;;;;;;2.40;2.20;;;;;;;13.22;100.00;96429.75;5054812;28;20471;-50
2022/12/30 09:50:38;;;;;;;2.60;2.40;;;;;;;13.46;100.00;96438.78;5058378;28;20492;-48
2022/12/30 09:53:13;;;;;;;5.00;3.13;;;;;;;14.15;100.00;96429.50;5054590;28;20080;-47
2022/12/30 09:55:49;;;;;;;7.95;5.30;;;;;;;14.21;100.00;96422.69;5057396;28;20551;-49
2022/12/30 09:58:22;;;;;;;4.75;3.60;;;;;;;14.24;100.00;96425.00;5056109;28;20085;-47
2022/12/30 10:00:52;;;;;;;3.20;2.90;;;;;;;14.80;100.00;96411.81;5057685;28;20084;-49
2022/12/30 10:03:25;;;;;;;3.92;2.90;;;;;;;14.47;100.00;96419.84;5062254;28;20072;-47
2022/12/30 10:06:22;;;;;;;3.15;2.80;;;;;;;14.58;100.00;96408.88;5058073;28;20053;-48
2022/12/30 10:09:26;;;;;;;2.60;2.40;;;;;;;14.45;100.00;96397.94;5051698;28;20084;-48
2022/12/30 10:12:04;;;;;;;6.60;4.82;;;;;;;15.17;100.00;96390.72;5060659;28;20087;-48
2022/12/30 10:14:40;;;;;;;3.65;3.10;;;;;;;15.09;100.00;96371.34;5053198;28;20076;-48
2022/12/30 10:17:17;;;;;;;2.38;2.17;;;;;;;14.90;100.00;96369.94;5055263;28;20478;-47
2022/12/30 10:19:54;;;;;;;2.38;2.20;;;;;;;15.27;100.00;96358.59;5055973;28;20080;-50
2022/12/30 10:22:26;;;;;;;2.20;2.00;;;;;;;14.26;100.00;96356.72;5060613;28;20088;-52
2022/12/30 10:25:04;;;;;;;2.38;2.00;;;;;;;14.06;100.00;96364.22;5061014;28;20084;-49
2022/12/30 10:27:39;;;;;;;4.75;2.30;;;;;;;14.30;100.00;96350.06;5050127;28;20089;-49
2022/12/30 10:30:13;;;;;;;2.40;2.20;;;;;;;14.52;100.00;96342.41;5055906;28;20076;-50
2022/12/30 10:32:47;;;;;;;2.00;1.90;;;;;;;14.42;100.00;96332.81;5057955;28;20095;-48
2022/12/30 10:35:21;;;;;;;2.15;2.05;;;;;;;14.29;100.00;96327.22;5053040;28;20092;-49
2022/12/30 10:37:52;;;;;;;1.95;1.85;;;;;;;14.30;100.00;96323.56;5053289;28;20147;-50
2022/12/30 10:40:24;;;;;;;2.22;2.03;;;;;;;14.47;100.00;96325.13;5055747;28;20540;-52
2022/12/30 10:43:24;;;;;;;2.25;1.92;;;;;;;14.86;100.00;96313.69;5052987;28;20081;-48
2022/12/30 10:46:05;;;;;;;1.90;1.80;;;;;;;14.41;100.00;96315.22;5064172;28;20087;-48
2022/12/30 10:48:56;;;;;;;1.88;1.77;;;;;;;14.70;100.00;96317.28;5055345;28;20096;-48
2022/12/30 10:51:26;;;;;;;2.10;2.00;;;;;;;14.38;100.00;96312.06;5049236;28;20077;-50
2022/12/30 10:53:55;;;;;;;2.23;1.90;;;;;;;14.56;100.00;96303.94;5055873;28;20106;-53
2022/12/30 10:56:26;;;;;;;1.92;1.83;;;;;;;14.82;100.00;96311.56;5053673;28;20139;-52
2022/12/30 10:58:57;;;;;;;1.88;1.75;;;;;;;14.27;100.00;96310.63;5061419;28;20088;-49
2022/12/30 11:01:31;;;;;;;2.00;1.90;;;;;;;14.23;100.00;96307.50;5053680;28;20080;-49
2022/12/30 11:04:00;;;;;;;1.98;1.77;;;;;;;14.74;100.00;96304.50;5062700;28;20080;-48
2022/12/30 11:06:31;;;;;;;1.80;1.70;;;;;;;14.66;100.00;96292.09;5059185;28;20084;-49
2022/12/30 11:09:17;;;;;;;1.90;1.80;;;;;;;14.96;100.00;96279.78;5067296;28;20224;-45
2022/12/30 11:15:00;;;;;;;1.90;1.80;;;;;;;14.41;100.00;96274.59;5000685;28;20085;-49
2022/12/30 11:17:28;;;;;;;;;;;;;;;13.77;100.00;96272.00;5056895;28;20602;-48
2022/12/30 11:20:00;;;;;;;2.25;1.95;;;;;;;14.08;100.00;96258.81;5060912;28;19959;-49
2022/12/30 11:22:29;;;;;;;2.20;1.90;;;;;;;14.12;100.00;96248.69;5051821;28;20083;-48
2022/12/30 11:25:03;;;;;;;1.90;1.80;;;;;;;14.23;100.00;96248.31;5059250;28;20102;-50
2022/12/30 11:27:41;;;;;;;2.38;2.00;;;;;;;14.21;100.00;96252.94;5049402;28;20524;-49
2022/12/30 11:30:23;;;;;;;2.00;1.90;;;;;;;14.49;100.00;96245.38;5060264;28;20072;-49
2022/12/30 11:32:51;;;;;;;2.10;1.80;;;;;;;14.70;100.00;96239.50;5055411;28;20480;-50
2022/12/30 11:35:34;;;;;;;1.83;1.73;;;;;;;14.74;100.00;96232.00;5056284;28;20075;-48
2022/12/30 11:38:07;;;;;;;2.25;2.05;;;;;;;15.70;100.00;96214.59;5047859;28;20095;-48
2022/12/30 11:40:37;;;;;;;2.00;1.90;;;;;;;15.05;100.00;96218.66;5051083;28;20072;-47
2022/12/30 11:43:12;;;;;;;1.95;1.85;;;;;;;15.21;100.00;96205.25;5058031;28;20093;-47
2022/12/30 11:45:56;;;;;;;2.10;1.90;;;;;;;15.00;100.00;96215.69;5049165;28;20073;-50
2022/12/30 11:48:31;;;;;;;2.00;1.90;;;;;;;14.96;100.00;96208.09;5060185;28;20451;-48
2022/12/30 11:51:01;;;;;;;1.92;1.83;;;;;;;14.74;100.00;96216.06;5052927;28;20091;-48
2022/12/30 11:53:34;;;;;;;2.00;1.90;;;;;;;14.86;100.00;96206.69;5055477;28;20080;-47
2022/12/30 11:56:03;;;;;;;1.80;1.70;;;;;;;15.42;100.00;96193.94;5057775;28;20094;-50
2022/12/30 11:58:34;;;;;;;1.90;1.80;;;;;;;14.59;100.00;96195.59;5060955;28;20083;-48
2022/12/30 12:01:04;;;;;;;1.90;1.80;;;;;;;15.03;100.00;96191.44;5060570;28;20060;-48
2022/12/30 12:03:33;;;;;;;1.70;1.60;;;;;;;14.99;100.00;96190.16;5054075;28;20083;-48
2022/12/30 12:06:09;;;;;;;1.60;1.50;;;;;;;15.16;100.00;96192.47;5056430;28;20072;-38
2022/12/30 12:08:44;;;;;;;1.70;1.60;;;;;;;14.93;99.62;96183.72;5052266;28;20057;-44
2022/12/30 12:11:16;;;;;;;1.83;1.73;;;;;;;14.92;100.00;96184.72;5056302;28;20072;-45
2022/12/30 12:13:51;;;;;;;1.90;1.80;;;;;;;15.35;92.10;96172.56;5048670;28;20064;-38
2022/12/30 12:16:31;;;;;;;1.90;1.80;;;;;;;15.51;98.41;96176.06;5060765;28;20096;-38
2022/12/30 12:19:07;;;;;;;2.13;1.92;;;;;;;15.36;97.78;96170.72;5059365;28;20076;-39
2022/12/30 12:21:39;;;;;;;1.92;1.83;;;;;;;15.70;99.53;96164.91;5058298;28;20460;-42
2022/12/30 12:24:17;;;;;;;1.83;1.73;;;;;;;14.90;94.88;96171.66;5062624;28;20060;-43
2022/12/30 12:26:52;;;;;;;1.88;1.77;;;;;;;14.79;95.44;96171.22;5051149;28;20077;-40
2022/12/30 12:29:21;;;;;;;1.80;1.70;;;;;;;14.52;100.00;96172.56;5062539;28;20098;-37
2022/12/30 12:32:11;;;;;;;1.80;1.70;;;;;;;14.35;100.00;96172.69;5054245;28;20437;-40
2022/12/30 12:35:05;;;;;;;2.35;1.70;;;;;;;14.96;97.51;96162.94;5053869;28;20110;-40
2022/12/30 12:37:42;;;;;;;1.70;1.60;;;;;;;14.78;99.21;96173.06;5049984;28;20072;-41
2022/12/30 12:40:44;;;;;;;1.80;1.70;;;;;;;15.18;100.00;96166.59;5059272;28;20139;-41